createdAt,value
2019-05-06T00:01:24.366Z,50.60
2019-05-06T00:03:54.197Z,52.20
2019-05-06T00:06:23.646Z,51.40
2019-05-06T00:08:54.365Z,53.10
2019-05-06T00:11:23.883Z,52.20
2019-05-06T00:13:54.322Z,51.70
2019-05-06T00:16:23.760Z,51.50
2019-05-06T00:18:54.030Z,52.30
2019-05-06T00:21:24.474Z,51.70
2019-05-06T00:23:54.584Z,52.00
2019-05-06T00:26:34.113Z,52.60
2019-05-06T00:29:04.593Z,52.60
2019-05-06T00:31:34.515Z,52.40
2019-05-06T00:34:04.343Z,52.90
2019-05-06T00:36:34.484Z,52.70
2019-05-06T00:39:04.831Z,52.60
2019-05-06T00:41:36.429Z,53.10
2019-05-06T00:44:04.216Z,53.30
2019-05-06T00:46:34.399Z,52.80
2019-05-06T00:49:03.824Z,52.80
2019-05-06T00:51:33.924Z,53.00
2019-05-06T00:54:06.967Z,53.50
2019-05-06T00:56:35.478Z,53.20
2019-05-06T00:59:04.257Z,53.00
2019-05-06T01:01:34.435Z,52.80
2019-05-06T01:04:04.858Z,53.80
2019-05-06T01:06:34.484Z,53.50
2019-05-06T01:09:04.554Z,53.70
2019-05-06T01:11:34.626Z,53.00
2019-05-06T01:14:05.119Z,52.80
2019-05-06T01:16:34.540Z,53.60
2019-05-06T01:19:04.717Z,54.70
2019-05-06T01:21:34.212Z,54.20
2019-05-06T01:24:04.006Z,54.40
2019-05-06T01:26:33.701Z,54.90
2019-05-06T01:29:03.970Z,54.10
2019-05-06T01:31:42.908Z,53.80
2019-05-06T01:34:09.019Z,53.60
2019-05-06T01:36:37.644Z,54.60
2019-05-06T01:39:11.202Z,54.80
2019-05-06T01:41:41.507Z,55.20
2019-05-06T01:44:09.965Z,54.80
2019-05-06T01:46:38.679Z,55.70
2019-05-06T01:49:07.222Z,54.80
2019-05-06T01:51:35.722Z,55.30
2019-05-06T01:54:04.187Z,55.10
2019-05-06T01:56:33.665Z,55.20
2019-05-06T01:59:04.358Z,54.50
2019-05-06T02:01:34.186Z,54.60
2019-05-06T02:04:04.504Z,54.10
2019-05-06T02:06:34.323Z,54.50
2019-05-06T02:09:04.564Z,54.20
2019-05-06T02:11:33.848Z,54.90
2019-05-06T02:14:04.597Z,54.60
2019-05-06T02:16:34.359Z,54.40
2019-05-06T02:19:04.005Z,54.40
2019-05-06T02:21:34.586Z,54.80
2019-05-06T02:24:20.034Z,54.80
2019-05-06T02:26:48.526Z,54.70
2019-05-06T02:29:18.695Z,54.80
2019-05-06T02:32:17.357Z,54.60
2019-05-06T02:34:38.795Z,55.70
2019-05-06T02:37:14.927Z,55.00
2019-05-06T02:39:43.921Z,55.20
2019-05-06T02:42:13.183Z,55.30
2019-05-06T02:44:44.182Z,55.60
2019-05-06T02:47:22.855Z,55.60
2019-05-06T02:49:53.495Z,55.60
2019-05-06T02:52:22.881Z,56.00
2019-05-06T02:54:53.712Z,55.80
2019-05-06T02:57:23.750Z,56.40
2019-05-06T02:59:55.301Z,55.50
2019-05-06T03:02:38.623Z,55.90
2019-05-06T03:04:52.977Z,55.90
2019-05-06T03:07:23.369Z,56.20
2019-05-06T03:09:53.292Z,56.50
2019-05-06T03:12:22.892Z,55.90
2019-05-06T03:14:53.254Z,55.90
2019-05-06T03:17:23.407Z,55.60
2019-05-06T03:19:53.873Z,56.40
2019-05-06T03:22:35.900Z,57.20
2019-05-06T03:25:13.467Z,56.30
2019-05-06T03:27:46.506Z,56.00
2019-05-06T03:30:16.333Z,55.70
2019-05-06T03:33:20.234Z,56.10
2019-05-06T03:35:27.367Z,55.90
2019-05-06T03:37:44.012Z,55.70
2019-05-06T03:40:13.819Z,55.90
2019-05-06T03:42:42.802Z,56.10
2019-05-06T03:45:28.574Z,56.40
2019-05-06T03:47:58.868Z,56.40
2019-05-06T03:50:27.469Z,56.20
2019-05-06T03:52:56.608Z,56.20
2019-05-06T03:55:25.962Z,56.60
2019-05-06T03:57:54.972Z,57.00
2019-05-06T04:00:23.870Z,57.00
2019-05-06T04:02:53.649Z,57.10
2019-05-06T04:05:23.881Z,57.00
2019-05-06T04:07:53.153Z,57.00
2019-05-06T04:10:22.839Z,57.20
2019-05-06T04:12:53.474Z,57.10
2019-05-06T04:15:22.950Z,57.40
2019-05-06T04:17:56.523Z,57.20
2019-05-06T04:20:34.301Z,57.10
2019-05-06T04:23:23.360Z,57.10
2019-05-06T04:26:08.008Z,56.90
2019-05-06T04:28:37.510Z,57.40
2019-05-06T04:31:06.055Z,57.50
2019-05-06T04:33:35.004Z,57.60
2019-05-06T04:36:03.984Z,57.50
2019-05-06T04:38:33.640Z,57.60
2019-05-06T04:41:03.074Z,57.50
2019-05-06T04:43:33.616Z,57.40
2019-05-06T04:46:04.891Z,57.40
2019-05-06T04:48:33.358Z,57.20
2019-05-06T04:51:03.496Z,57.60
2019-05-06T04:53:33.832Z,57.60
2019-05-06T04:56:03.921Z,57.40
2019-05-06T04:58:33.657Z,57.50
2019-05-06T05:01:04.051Z,57.80
2019-05-06T05:03:33.582Z,57.60
2019-05-06T05:06:05.643Z,57.50
2019-05-06T05:08:39.056Z,57.90
2019-05-06T05:11:26.054Z,57.90
2019-05-06T05:13:59.050Z,58.00
2019-05-06T05:16:29.392Z,57.60
2019-05-06T05:19:02.744Z,57.40
2019-05-06T05:21:32.291Z,57.60
2019-05-06T05:24:02.038Z,58.00
2019-05-06T05:26:32.209Z,58.20
2019-05-06T05:29:02.762Z,58.50
2019-05-06T05:31:33.215Z,58.50
2019-05-06T05:34:02.122Z,58.50
2019-05-06T05:36:32.853Z,58.90
2019-05-06T05:39:03.093Z,59.30
2019-05-06T05:41:33.227Z,58.50
2019-05-06T05:44:03.262Z,58.80
2019-05-06T05:46:33.004Z,58.50
2019-05-06T05:49:12.621Z,58.60
2019-05-06T05:51:42.611Z,59.20
2019-05-06T05:54:12.448Z,59.10
2019-05-06T05:56:43.005Z,59.10
2019-05-06T05:59:12.279Z,58.90
2019-05-06T06:01:43.287Z,58.40
2019-05-06T06:04:12.996Z,58.70
2019-05-06T06:06:42.341Z,58.80
2019-05-06T06:09:12.703Z,59.00
2019-05-06T06:11:46.408Z,58.80
2019-05-06T06:14:28.819Z,58.90
2019-05-06T06:17:15.529Z,58.60
2019-05-06T06:19:45.722Z,58.50
2019-05-06T06:22:15.922Z,58.70
2019-05-06T06:24:44.404Z,58.50
2019-05-06T06:27:13.203Z,58.70
2019-05-06T06:29:44.978Z,58.40
2019-05-06T06:32:19.829Z,58.40
2019-05-06T06:35:07.149Z,58.40
2019-05-06T06:37:42.629Z,58.40
2019-05-06T06:40:13.134Z,58.90
2019-05-06T06:42:42.723Z,59.10
2019-05-06T06:45:12.266Z,60.10
2019-05-06T06:47:42.504Z,59.40
2019-05-06T06:50:12.555Z,61.00
2019-05-06T06:52:43.373Z,59.70
2019-05-06T06:55:13.007Z,59.60
2019-05-06T06:58:02.714Z,59.60
2019-05-06T07:00:33.665Z,60.00
2019-05-06T07:03:12.146Z,60.20
2019-05-06T07:05:44.989Z,60.20
2019-05-06T07:08:13.592Z,60.10
2019-05-06T07:10:46.678Z,60.20
2019-05-06T07:13:16.147Z,59.80
2019-05-06T07:15:44.785Z,59.80
2019-05-06T07:18:13.784Z,59.80
2019-05-06T07:20:47.363Z,59.40
2019-05-06T07:23:26.678Z,59.30
2019-05-06T07:25:55.355Z,59.20
2019-05-06T07:28:24.351Z,59.20
2019-05-06T07:30:53.973Z,59.00
2019-05-06T07:33:23.061Z,58.90
2019-05-06T07:35:52.995Z,58.90
2019-05-06T07:38:23.505Z,58.50
2019-05-06T07:40:53.774Z,58.30
2019-05-06T07:43:42.168Z,58.10
2019-05-06T07:46:23.518Z,58.80
2019-05-06T07:48:51.978Z,57.90
2019-05-06T07:51:20.711Z,57.60
2019-05-06T07:53:49.385Z,57.50
2019-05-06T07:56:18.077Z,56.70
2019-05-06T07:58:46.633Z,56.40
2019-05-06T08:01:15.259Z,56.50
2019-05-06T08:03:43.926Z,55.90
2019-05-06T08:06:13.362Z,55.70
2019-05-06T08:08:43.327Z,55.80
2019-05-06T08:11:12.669Z,56.10
2019-05-06T08:13:43.502Z,56.50
2019-05-06T08:16:13.151Z,56.60
2019-05-06T08:18:45.064Z,56.70
2019-05-06T08:21:15.278Z,55.60
2019-05-06T08:23:45.413Z,55.50
2019-05-06T08:26:17.351Z,55.80
2019-05-06T08:28:44.727Z,55.90
2019-05-06T08:31:14.935Z,56.10
2019-05-06T08:33:43.626Z,56.20
2019-05-06T08:36:14.961Z,55.50
2019-05-06T08:38:56.246Z,55.30
2019-05-06T08:41:25.617Z,55.50
2019-05-06T08:43:54.078Z,55.20
2019-05-06T08:46:23.485Z,54.50
2019-05-06T08:48:52.721Z,54.70
2019-05-06T08:51:38.211Z,54.40
2019-05-06T08:54:08.305Z,54.50
2019-05-06T08:56:36.810Z,54.30
2019-05-06T08:59:05.601Z,53.70
2019-05-06T09:01:47.699Z,53.60
2019-05-06T09:04:16.606Z,53.20
2019-05-06T09:06:45.329Z,53.90
2019-05-06T09:09:13.980Z,54.40
2019-05-06T09:11:43.114Z,54.90
2019-05-06T09:14:13.751Z,55.00
2019-05-06T09:16:43.759Z,55.00
2019-05-06T09:19:13.119Z,55.10
2019-05-06T09:21:45.790Z,54.50
2019-05-06T09:24:22.960Z,55.40
2019-05-06T09:26:52.700Z,54.40
2019-05-06T09:29:32.541Z,54.30
2019-05-06T09:32:08.459Z,55.30
2019-05-06T09:34:47.631Z,54.40
2019-05-06T09:37:17.750Z,54.40
2019-05-06T09:39:46.312Z,53.90
2019-05-06T09:42:14.897Z,53.20
2019-05-06T09:44:44.547Z,52.80
2019-05-06T09:47:27.060Z,52.90
2019-05-06T09:49:55.644Z,53.40
2019-05-06T09:52:24.102Z,53.70
2019-05-06T09:55:03.015Z,53.80
2019-05-06T09:57:32.659Z,55.00
2019-05-06T10:00:04.633Z,54.60
2019-05-06T10:02:32.559Z,55.10
2019-05-06T10:05:03.569Z,54.00
2019-05-06T10:07:33.754Z,53.70
2019-05-06T10:10:01.767Z,54.30
2019-05-06T10:12:32.730Z,54.10
2019-05-06T10:15:03.160Z,54.20
2019-05-06T10:17:30.805Z,53.80
2019-05-06T10:19:59.362Z,54.20
2019-05-06T10:22:27.831Z,54.60
2019-05-06T10:24:56.505Z,54.40
2019-05-06T10:27:25.159Z,54.10
2019-05-06T10:29:58.387Z,55.00
2019-05-06T10:32:28.708Z,52.70
2019-05-06T10:34:57.236Z,52.20
2019-05-06T10:37:30.071Z,52.60
2019-05-06T10:40:23.048Z,52.60
2019-05-06T10:43:15.777Z,52.00
2019-05-06T10:45:44.441Z,52.90
2019-05-06T10:48:13.029Z,52.30
2019-05-06T10:50:45.914Z,52.70
2019-05-06T10:53:24.703Z,52.40
2019-05-06T10:55:54.928Z,52.20
2019-05-06T10:58:28.049Z,51.50
2019-05-06T11:01:03.459Z,52.30
2019-05-06T11:03:32.998Z,51.70
2019-05-06T11:06:02.619Z,52.60
2019-05-06T11:08:32.591Z,52.80
2019-05-06T11:11:15.294Z,51.40
2019-05-06T11:13:40.771Z,48.10
2019-05-06T11:16:09.442Z,48.80
2019-05-06T11:18:38.376Z,49.60
2019-05-06T11:21:06.955Z,50.70
2019-05-06T11:23:35.621Z,43.70
2019-05-06T11:26:04.338Z,40.10
2019-05-06T11:28:51.893Z,39.00
2019-05-06T11:31:23.044Z,40.30
2019-05-06T11:34:02.119Z,41.80
2019-05-06T11:36:37.483Z,42.80
2019-05-06T11:39:07.993Z,42.70
2019-05-06T11:41:36.664Z,41.90
2019-05-06T11:44:08.675Z,42.50
2019-05-06T11:46:35.477Z,43.30
2019-05-06T11:49:04.049Z,43.80
2019-05-06T11:51:33.553Z,44.20
2019-05-06T11:54:04.390Z,45.70
2019-05-06T11:56:33.967Z,46.50
2019-05-06T11:59:02.649Z,47.30
2019-05-06T12:01:33.074Z,48.20
2019-05-06T12:04:02.713Z,48.30
2019-05-06T12:06:33.926Z,49.00
2019-05-06T12:09:06.305Z,48.50
2019-05-06T12:11:32.768Z,48.50
2019-05-06T12:14:02.526Z,47.90
2019-05-06T12:16:33.036Z,48.00
2019-05-06T12:19:02.863Z,48.20
2019-05-06T12:21:33.035Z,48.00
2019-05-06T12:24:02.945Z,48.00
2019-05-06T12:26:32.226Z,48.10
2019-05-06T12:29:02.200Z,48.80
2019-05-06T12:31:32.864Z,51.10
2019-05-06T12:34:02.864Z,51.40
2019-05-06T12:36:32.665Z,51.80
2019-05-06T12:41:50.257Z,51.80
2019-05-06T12:44:19.003Z,52.50
2019-05-06T12:46:59.976Z,53.50
2019-05-06T12:49:28.959Z,53.80
2019-05-06T12:51:57.626Z,53.80
2019-05-06T12:54:26.152Z,54.20
2019-05-06T12:56:56.442Z,54.40
2019-05-06T12:59:25.091Z,54.30
2019-05-06T13:01:54.190Z,54.20
2019-05-06T13:04:43.844Z,55.00
2019-05-06T13:06:53.331Z,54.50
2019-05-06T13:09:22.642Z,52.30
2019-05-06T13:11:52.398Z,53.20
2019-05-06T13:14:22.351Z,53.50
2019-05-06T13:16:53.297Z,53.60
2019-05-06T13:19:22.858Z,54.20
2019-05-06T13:21:51.910Z,55.10
2019-05-06T13:24:22.641Z,55.60
2019-05-06T13:26:52.607Z,55.70
2019-05-06T13:29:25.007Z,56.50
2019-05-06T13:31:53.714Z,55.80
2019-05-06T13:34:23.441Z,57.00
2019-05-06T13:36:53.341Z,56.70
2019-05-06T13:39:23.752Z,56.10
2019-05-06T13:41:52.911Z,56.30
2019-05-06T13:44:22.793Z,55.90
2019-05-06T13:46:53.313Z,55.30
2019-05-06T13:49:23.920Z,55.00
2019-05-06T13:51:54.353Z,55.20
2019-05-06T13:54:23.067Z,54.80
2019-05-06T13:57:02.746Z,54.60
2019-05-06T13:59:31.007Z,54.30
2019-05-06T14:02:19.354Z,54.90
2019-05-06T14:04:47.875Z,54.40
2019-05-06T14:07:16.527Z,55.30
2019-05-06T14:09:45.164Z,55.60
2019-05-06T14:12:13.798Z,55.80
2019-05-06T14:14:43.251Z,55.20
2019-05-06T14:17:12.696Z,55.40
2019-05-06T14:19:42.966Z,55.50
2019-05-06T14:22:12.520Z,55.20
2019-05-06T14:24:43.205Z,55.40
2019-05-06T14:27:12.577Z,55.30
2019-05-06T14:29:48.775Z,55.70
2019-05-06T14:32:17.439Z,55.50
2019-05-06T14:34:46.007Z,55.80
2019-05-06T14:37:14.694Z,55.80
2019-05-06T14:39:53.898Z,55.50
2019-05-06T14:42:15.253Z,55.30
2019-05-06T14:44:43.809Z,55.20
2019-05-06T14:47:14.514Z,55.30
2019-05-06T14:49:43.665Z,55.70
2019-05-06T14:52:13.323Z,55.20
2019-05-06T14:54:49.522Z,55.30
2019-05-06T14:57:19.833Z,55.50
2019-05-06T14:59:50.989Z,55.50
2019-05-06T15:02:25.409Z,55.40
2019-05-06T15:04:50.599Z,55.50
2019-05-06T15:07:21.986Z,55.30
2019-05-06T15:09:58.336Z,55.20
2019-05-06T15:12:23.041Z,55.10
2019-05-06T15:14:52.587Z,54.60
2019-05-06T15:17:22.940Z,54.30
2019-05-06T15:19:52.567Z,54.40
2019-05-06T15:22:22.669Z,53.90
2019-05-06T15:24:53.560Z,53.90
2019-05-06T15:27:22.728Z,54.10
2019-05-06T15:29:54.159Z,54.10
2019-05-06T15:32:24.254Z,54.00
2019-05-06T15:35:12.907Z,54.10
2019-05-06T15:37:46.259Z,54.00
2019-05-06T15:40:14.735Z,53.80
2019-05-06T15:42:43.309Z,53.70
2019-05-06T15:45:12.587Z,53.90
2019-05-06T15:47:42.592Z,54.10
2019-05-06T15:50:12.796Z,53.30
2019-05-06T15:52:43.531Z,53.10
2019-05-06T15:55:11.728Z,53.60
2019-05-06T15:57:40.262Z,53.40
2019-05-06T16:00:09.312Z,53.30
2019-05-06T16:02:37.884Z,53.30
2019-05-06T16:05:13.702Z,53.30
2019-05-06T16:07:37.363Z,53.60
2019-05-06T16:10:07.436Z,53.80
2019-05-06T16:12:36.223Z,53.90
2019-05-06T16:15:06.548Z,54.10
2019-05-06T16:17:35.129Z,54.10
2019-05-06T16:20:04.494Z,54.60
2019-05-06T16:22:33.851Z,54.90
2019-05-06T16:25:04.190Z,55.10
2019-05-06T16:27:32.643Z,55.20
2019-05-06T16:30:03.455Z,55.50
2019-05-06T16:32:33.222Z,55.30
2019-05-06T16:35:01.556Z,55.70
2019-05-06T16:37:30.152Z,55.40
2019-05-06T16:39:58.602Z,55.20
2019-05-06T16:42:27.347Z,54.80
2019-05-06T16:44:56.084Z,54.70
2019-05-06T16:47:37.036Z,55.70
2019-05-06T16:50:13.227Z,54.80
2019-05-06T16:52:45.302Z,54.20
2019-05-06T16:55:14.425Z,53.40
2019-05-06T16:57:44.608Z,52.00
2019-05-06T17:00:14.755Z,51.70
2019-05-06T17:02:57.829Z,51.90
2019-05-06T17:05:22.534Z,52.50
2019-05-06T17:07:52.708Z,53.40
2019-05-06T17:10:22.791Z,52.20
2019-05-06T17:12:53.412Z,52.00
2019-05-06T17:15:23.020Z,52.30
2019-05-06T17:17:53.156Z,52.20
2019-05-06T17:20:22.782Z,51.70
2019-05-06T17:22:53.195Z,51.60
2019-05-06T17:25:22.460Z,51.80
2019-05-06T17:27:52.670Z,51.90
2019-05-06T17:30:39.206Z,51.80
2019-05-06T17:33:25.608Z,52.00
2019-05-06T17:35:54.243Z,51.90
2019-05-06T17:38:24.367Z,51.60
2019-05-06T17:40:53.128Z,52.60
2019-05-06T17:43:22.509Z,51.70
2019-05-06T17:46:01.755Z,52.00
2019-05-06T17:48:27.874Z,52.10
2019-05-06T17:51:10.085Z,52.40
2019-05-06T17:53:42.599Z,52.20
2019-05-06T17:56:12.547Z,52.20
2019-05-06T17:58:42.362Z,52.50
2019-05-06T18:01:12.573Z,52.70
2019-05-06T18:03:46.363Z,52.70
2019-05-06T18:06:14.894Z,52.60
2019-05-06T18:08:43.461Z,52.60
2019-05-06T18:11:12.919Z,51.70
2019-05-06T18:13:41.667Z,51.60
2019-05-06T18:16:10.192Z,51.30
2019-05-06T18:18:38.643Z,51.50
2019-05-06T18:21:07.257Z,51.30
2019-05-06T18:23:35.828Z,51.40
2019-05-06T18:26:04.330Z,50.80
2019-05-06T18:28:32.860Z,50.80
2019-05-06T18:31:03.104Z,49.50
2019-05-06T18:33:32.646Z,49.80
2019-05-06T18:36:02.544Z,49.00
2019-05-06T18:38:32.931Z,47.90
2019-05-06T18:41:02.084Z,48.40
2019-05-06T18:43:33.083Z,48.30
2019-05-06T18:46:02.814Z,48.20
2019-05-06T18:48:32.531Z,48.40
2019-05-06T18:51:03.041Z,48.40
2019-05-06T18:53:33.113Z,48.50
2019-05-06T18:56:03.147Z,48.00
2019-05-06T18:58:32.390Z,48.40
2019-05-06T19:01:00.872Z,47.30
2019-05-06T19:03:32.079Z,47.60
2019-05-06T19:06:02.766Z,47.90
2019-05-06T19:08:33.430Z,47.90
2019-05-06T19:11:02.477Z,47.80
2019-05-06T19:13:32.909Z,47.40
2019-05-06T19:16:02.114Z,47.50
2019-05-06T19:18:31.117Z,47.60
2019-05-06T19:20:59.632Z,47.80
2019-05-06T19:23:28.086Z,47.80
2019-05-06T19:25:56.639Z,47.50
2019-05-06T19:28:25.131Z,47.70
2019-05-06T19:30:54.163Z,47.50
2019-05-06T19:33:23.115Z,47.40
2019-05-06T19:35:52.281Z,46.70
2019-05-06T19:38:23.904Z,47.30
2019-05-06T19:40:52.163Z,47.30
2019-05-06T19:43:22.388Z,47.50
2019-05-06T19:45:52.969Z,47.50
2019-05-06T19:48:22.242Z,47.70
2019-05-06T19:50:52.228Z,47.30
2019-05-06T19:53:23.549Z,47.10
2019-05-06T19:55:53.015Z,47.20
2019-05-06T19:58:21.421Z,47.60
2019-05-06T20:00:50.329Z,47.40
2019-05-06T20:03:19.891Z,47.60
2019-05-06T20:05:54.416Z,47.70
2019-05-06T20:08:32.414Z,47.90
2019-05-06T20:11:04.811Z,48.10
2019-05-06T20:13:33.292Z,48.10
2019-05-06T20:16:02.789Z,47.60
2019-05-06T20:18:32.833Z,47.80
2019-05-06T20:21:01.483Z,47.90
2019-05-06T20:23:30.030Z,47.90
2019-05-06T20:25:58.498Z,48.00
2019-05-06T20:28:27.063Z,47.90
2019-05-06T20:30:57.162Z,48.00
2019-05-06T20:33:25.646Z,48.00
2019-05-06T20:35:54.111Z,48.10
2019-05-06T20:38:23.263Z,48.70
2019-05-06T20:40:51.826Z,48.10
2019-05-06T20:43:23.178Z,48.00
2019-05-06T20:45:52.157Z,48.10
2019-05-06T20:48:20.732Z,48.20
2019-05-06T20:50:49.179Z,48.00
2019-05-06T20:53:17.766Z,48.10
2019-05-06T20:55:46.350Z,48.10
2019-05-06T20:58:14.910Z,48.10
2019-05-06T21:00:43.557Z,48.10
2019-05-06T21:03:12.425Z,48.00
2019-05-06T21:05:43.235Z,47.90
2019-05-06T21:08:13.014Z,48.10
2019-05-06T21:10:42.478Z,48.30
2019-05-06T21:13:13.357Z,48.30
2019-05-06T21:15:43.226Z,48.40
2019-05-06T21:18:12.239Z,48.10
2019-05-06T21:20:43.345Z,48.20
2019-05-06T21:23:11.243Z,48.30
2019-05-06T21:25:39.745Z,48.00
2019-05-06T21:28:08.265Z,48.10
2019-05-06T21:30:36.827Z,48.10
2019-05-06T21:33:05.327Z,48.10
2019-05-06T21:35:34.131Z,48.10
2019-05-06T21:38:02.768Z,48.20
2019-05-06T21:40:32.331Z,48.20
2019-05-06T21:43:02.143Z,48.40
2019-05-06T21:45:32.877Z,48.30
2019-05-06T21:48:02.804Z,48.30
2019-05-06T21:50:33.038Z,48.30
2019-05-06T21:53:02.705Z,48.40
2019-05-06T21:55:32.354Z,48.30
2019-05-06T21:58:02.149Z,48.20
2019-05-06T22:00:38.406Z,48.40
2019-05-06T22:03:06.883Z,48.50
2019-05-06T22:05:35.370Z,48.60
2019-05-06T22:08:03.915Z,48.60
2019-05-06T22:10:32.586Z,48.70
2019-05-06T22:13:01.161Z,49.00
2019-05-06T22:15:29.665Z,48.90
2019-05-06T22:17:58.245Z,49.00
2019-05-06T22:20:26.737Z,49.20
2019-05-06T22:22:55.191Z,49.20
2019-05-06T22:25:23.726Z,49.20
2019-05-06T22:27:52.163Z,50.00
2019-05-06T22:30:23.620Z,49.30
2019-05-06T22:32:52.699Z,49.40
2019-05-06T22:35:23.081Z,49.50
2019-05-06T22:37:53.015Z,49.50
2019-05-06T22:40:23.713Z,49.50
2019-05-06T22:42:52.788Z,49.50
2019-05-06T22:45:22.247Z,49.50
2019-05-06T22:47:50.942Z,49.60
2019-05-06T22:50:19.397Z,49.40
2019-05-06T22:52:47.840Z,49.50
2019-05-06T22:55:16.325Z,49.70
2019-05-06T22:57:44.857Z,49.90
2019-05-06T23:00:16.770Z,49.80
2019-05-06T23:02:49.862Z,49.60
2019-05-06T23:05:18.338Z,49.60
2019-05-06T23:07:46.827Z,49.60
2019-05-06T23:10:15.310Z,49.70
2019-05-06T23:12:43.766Z,49.70
2019-05-06T23:15:12.388Z,49.60
2019-05-06T23:17:42.114Z,50.00
2019-05-06T23:20:10.662Z,50.00
2019-05-06T23:22:39.174Z,50.20
2019-05-06T23:25:07.690Z,50.10
2019-05-06T23:27:36.378Z,50.10
2019-05-06T23:30:06.634Z,50.10
2019-05-06T23:32:35.237Z,49.90
2019-05-06T23:35:04.869Z,50.60
2019-05-06T23:37:32.409Z,49.90
2019-05-06T23:40:38.417Z,50.10
2019-05-06T23:43:42.951Z,50.00
2019-05-06T23:46:47.295Z,50.10
2019-05-06T23:49:52.717Z,50.10
2019-05-06T23:52:57.397Z,50.10
2019-05-06T23:56:02.829Z,50.20
2019-05-06T23:58:32.191Z,50.40
